createdAt,value
2018-06-07T00:02:03.548Z,18.13
2018-06-07T00:04:32.017Z,16.67
2018-06-07T00:07:00.424Z,16.97
2018-06-07T00:09:28.843Z,15.73
2018-06-07T00:11:57.257Z,14.70
2018-06-07T00:14:25.716Z,15.43
2018-06-07T00:16:54.141Z,13.90
2018-06-07T00:19:22.571Z,14.57
2018-06-07T00:21:51.021Z,13.80
2018-06-07T00:24:19.462Z,14.17
2018-06-07T00:26:47.886Z,14.70
2018-06-07T00:29:16.320Z,13.80
2018-06-07T00:31:44.816Z,13.03
2018-06-07T00:34:13.256Z,14.50
2018-06-07T00:36:41.856Z,13.93
2018-06-07T00:39:10.559Z,14.30
2018-06-07T00:41:38.998Z,13.87
2018-06-07T00:44:07.463Z,14.30
2018-06-07T00:46:35.897Z,15.10
2018-06-07T00:49:04.465Z,14.63
2018-06-07T00:51:32.933Z,14.93
2018-06-07T00:54:02.100Z,15.90
2018-06-07T00:56:41.841Z,14.73
2018-06-07T00:59:10.264Z,15.23
2018-06-07T01:01:38.712Z,14.07
2018-06-07T01:04:07.135Z,15.13
2018-06-07T01:06:35.650Z,15.43
2018-06-07T01:09:05.773Z,15.00
2018-06-07T01:11:34.448Z,15.00
2018-06-07T01:14:02.897Z,15.20
2018-06-07T01:16:31.336Z,14.80
2018-06-07T01:18:59.780Z,15.10
2018-06-07T01:21:28.212Z,14.40
2018-06-07T01:23:56.688Z,13.60
2018-06-07T01:26:25.080Z,14.40
2018-06-07T01:28:53.552Z,14.07
2018-06-07T01:31:27.296Z,14.90
2018-06-07T01:33:55.756Z,14.17
2018-06-07T01:36:24.257Z,13.40
2018-06-07T01:39:14.463Z,14.57
2018-06-07T01:41:42.955Z,14.33
2018-06-07T01:44:11.401Z,14.17
2018-06-07T01:46:39.851Z,13.50
2018-06-07T01:49:08.304Z,15.40
2018-06-07T01:51:36.852Z,12.83
2018-06-07T01:54:05.466Z,13.90
2018-06-07T01:56:33.872Z,14.90
2018-06-07T01:59:02.378Z,15.70
2018-06-07T02:01:30.860Z,15.87
2018-06-07T02:04:00.559Z,15.80
2018-06-07T02:06:29.082Z,16.80
2018-06-07T02:08:57.520Z,15.33
2018-06-07T02:11:25.944Z,16.40
2018-06-07T02:13:54.424Z,15.90
2018-06-07T02:16:22.885Z,16.30
2018-06-07T02:18:51.320Z,17.50
2018-06-07T02:21:19.756Z,16.70
2018-06-07T02:23:48.394Z,17.20
2018-06-07T02:26:22.751Z,17.37
2018-06-07T02:28:51.241Z,17.17
2018-06-07T02:31:19.725Z,16.40
2018-06-07T02:33:48.176Z,16.77
2018-06-07T02:36:16.681Z,17.70
2018-06-07T02:38:45.160Z,16.77
2018-06-07T02:41:13.656Z,19.20
2018-06-07T02:43:42.074Z,16.90
2018-06-07T02:46:10.476Z,15.87
2018-06-07T02:48:38.936Z,16.17
2018-06-07T02:51:07.365Z,15.10
2018-06-07T02:53:35.968Z,15.90
2018-06-07T02:56:04.465Z,14.60
2018-06-07T02:58:33.115Z,16.47
2018-06-07T03:01:01.522Z,17.60
2018-06-07T03:03:30.120Z,17.73
2018-06-07T03:05:58.770Z,17.33
2018-06-07T03:08:27.253Z,16.83
2018-06-07T03:10:55.636Z,16.10
2018-06-07T03:13:24.112Z,16.70
2018-06-07T03:15:52.560Z,17.10
2018-06-07T03:18:21.000Z,18.13
2018-06-07T03:20:49.437Z,17.00
2018-06-07T03:23:17.872Z,17.50
2018-06-07T03:25:46.300Z,16.90
2018-06-07T03:28:14.766Z,17.33
2018-06-07T03:30:43.227Z,16.90
2018-06-07T03:33:11.745Z,16.97
2018-06-07T03:35:40.149Z,17.40
2018-06-07T03:38:08.400Z,18.60
2018-06-07T03:40:36.856Z,17.00
2018-06-07T03:43:05.342Z,18.83
2018-06-07T03:45:33.761Z,16.93
2018-06-07T03:48:02.221Z,18.23
2018-06-07T03:50:30.650Z,18.47
2018-06-07T03:52:59.139Z,18.13
2018-06-07T03:55:27.597Z,18.50
2018-06-07T03:57:56.009Z,18.13
2018-06-07T04:00:24.509Z,17.70
2018-06-07T04:02:52.992Z,17.90
2018-06-07T04:05:21.528Z,16.90
2018-06-07T04:07:49.991Z,18.20
2018-06-07T04:10:18.380Z,18.50
2018-06-07T04:12:46.885Z,18.00
2018-06-07T04:15:15.315Z,19.63
2018-06-07T04:17:43.763Z,17.23
2018-06-07T04:20:12.334Z,18.30
2018-06-07T04:22:40.737Z,17.83
2018-06-07T04:25:09.168Z,16.20
2018-06-07T04:27:37.627Z,18.17
2018-06-07T04:30:06.300Z,16.70
2018-06-07T04:32:34.752Z,17.37
2018-06-07T04:35:03.155Z,17.40
2018-06-07T04:37:31.621Z,18.07
2018-06-07T04:40:00.033Z,17.87
2018-06-07T04:42:28.459Z,17.20
2018-06-07T04:44:56.957Z,18.40
2018-06-07T04:47:25.409Z,16.63
2018-06-07T04:49:53.829Z,19.40
2018-06-07T04:52:22.364Z,18.40
2018-06-07T04:54:50.789Z,17.90
2018-06-07T04:57:19.376Z,19.00
2018-06-07T04:59:47.823Z,17.67
2018-06-07T05:02:16.263Z,18.00
2018-06-07T05:04:44.719Z,18.23
2018-06-07T05:07:13.149Z,18.10
2018-06-07T05:09:41.609Z,16.27
2018-06-07T05:12:10.054Z,16.73
2018-06-07T05:14:38.591Z,17.13
2018-06-07T05:17:06.963Z,16.00
2018-06-07T05:19:35.616Z,17.57
2018-06-07T05:22:04.144Z,17.10
2018-06-07T05:24:32.749Z,18.90
2018-06-07T05:27:01.173Z,17.00
2018-06-07T05:29:29.655Z,16.40
2018-06-07T05:31:58.198Z,17.17
2018-06-07T05:34:28.358Z,17.50
2018-06-07T05:36:56.941Z,17.97
2018-06-07T05:39:25.979Z,18.40
2018-06-07T05:41:54.384Z,23.77
2018-06-07T05:44:22.935Z,20.37
2018-06-07T05:46:51.332Z,17.67
2018-06-07T05:49:19.871Z,18.07
2018-06-07T05:51:48.447Z,17.23
2018-06-07T05:54:16.878Z,17.10
2018-06-07T05:56:45.294Z,17.33
2018-06-07T05:59:13.703Z,15.83
2018-06-07T06:01:42.167Z,15.97
2018-06-07T06:04:10.691Z,15.70
2018-06-07T06:06:39.373Z,15.13
2018-06-07T06:09:08.207Z,15.20
2018-06-07T06:11:37.163Z,15.30
2018-06-07T06:14:05.665Z,12.70
2018-06-07T06:16:34.095Z,12.93
2018-06-07T06:19:02.514Z,11.33
2018-06-07T06:21:31.307Z,11.93
2018-06-07T06:23:59.727Z,11.97
2018-06-07T06:26:28.131Z,12.40
2018-06-07T06:28:56.640Z,11.93
2018-06-07T06:31:35.067Z,11.97
2018-06-07T06:34:03.509Z,12.47
2018-06-07T06:36:31.956Z,11.17
2018-06-07T06:39:00.480Z,10.80
2018-06-07T06:41:28.960Z,11.60
2018-06-07T06:43:57.396Z,11.00
2018-06-07T06:46:25.908Z,9.80
2018-06-07T06:48:54.336Z,10.60
2018-06-07T06:51:22.728Z,9.17
2018-06-07T06:53:51.176Z,9.40
2018-06-07T06:56:19.596Z,8.53
2018-06-07T06:58:48.021Z,8.17
2018-06-07T07:01:16.469Z,7.63
2018-06-07T07:03:44.936Z,8.10
2018-06-07T07:06:13.472Z,7.67
2018-06-07T07:08:42.772Z,8.20
2018-06-07T07:11:11.241Z,7.13
2018-06-07T07:13:39.676Z,6.23
2018-06-07T07:16:08.112Z,6.40
2018-06-07T07:18:36.532Z,7.57
2018-06-07T07:21:05.035Z,7.40
2018-06-07T07:23:33.464Z,6.27
2018-06-07T07:26:01.921Z,9.37
2018-06-07T07:28:30.071Z,7.13
2018-06-07T07:30:58.463Z,7.23
2018-06-07T07:33:26.840Z,7.70
2018-06-07T07:35:55.337Z,7.20
2018-06-07T07:38:23.816Z,7.80
2018-06-07T07:40:52.284Z,7.20
2018-06-07T07:43:20.823Z,6.83
2018-06-07T07:45:49.256Z,8.30
2018-06-07T07:48:17.655Z,7.60
2018-06-07T07:50:46.087Z,7.17
2018-06-07T07:53:14.517Z,6.63
2018-06-07T07:55:43.004Z,6.80
2018-06-07T07:58:11.492Z,7.17
2018-06-07T08:00:39.900Z,11.43
2018-06-07T08:03:18.528Z,9.63
2018-06-07T08:05:46.976Z,7.83
2018-06-07T08:08:15.384Z,8.20
2018-06-07T08:10:43.935Z,7.60
2018-06-07T08:13:12.452Z,7.77
2018-06-07T08:15:40.876Z,8.07
2018-06-07T08:18:09.518Z,7.50
2018-06-07T08:20:37.964Z,7.97
2018-06-07T08:23:06.424Z,8.37
2018-06-07T08:25:34.853Z,7.43
2018-06-07T08:28:03.408Z,7.70
2018-06-07T08:30:31.908Z,7.80
2018-06-07T08:33:00.302Z,7.50
2018-06-07T08:35:28.760Z,8.00
2018-06-07T08:37:58.394Z,8.30
2018-06-07T08:40:26.900Z,8.20
2018-06-07T08:42:55.326Z,7.83
2018-06-07T08:45:23.779Z,8.30
2018-06-07T08:47:52.285Z,9.27
2018-06-07T08:50:20.696Z,9.10
2018-06-07T08:52:49.168Z,8.40
2018-06-07T08:55:17.930Z,8.20
2018-06-07T08:57:46.392Z,7.00
2018-06-07T09:00:14.915Z,8.40
2018-06-07T09:02:44.395Z,7.50
2018-06-07T09:05:13.954Z,7.77
2018-06-07T09:07:42.468Z,8.60
2018-06-07T09:10:10.980Z,8.27
2018-06-07T09:12:39.448Z,7.63
2018-06-07T09:15:07.889Z,7.83
2018-06-07T09:17:36.529Z,6.97
2018-06-07T09:20:05.101Z,8.63
2018-06-07T09:22:33.557Z,7.97
2018-06-07T09:25:02.028Z,8.67
2018-06-07T09:27:30.537Z,10.43
2018-06-07T09:29:58.970Z,7.70
2018-06-07T09:32:27.373Z,7.70
2018-06-07T09:35:04.149Z,7.03
2018-06-07T09:37:32.580Z,7.03
2018-06-07T09:40:01.045Z,6.80
2018-06-07T09:42:29.489Z,7.33
2018-06-07T09:44:57.953Z,7.70
2018-06-07T09:47:26.417Z,7.03
2018-06-07T09:49:54.840Z,7.97
2018-06-07T09:52:23.261Z,8.00
2018-06-07T09:54:51.682Z,9.83
2018-06-07T09:57:20.184Z,8.77
2018-06-07T09:59:48.714Z,8.20
2018-06-07T10:02:18.234Z,9.17
2018-06-07T10:04:46.676Z,8.37
2018-06-07T10:07:15.168Z,7.60
2018-06-07T10:09:43.621Z,10.27
2018-06-07T10:12:12.094Z,8.93
2018-06-07T10:14:40.539Z,10.80
2018-06-07T10:17:09.261Z,8.90
2018-06-07T10:19:37.761Z,10.03
2018-06-07T10:22:06.170Z,8.73
2018-06-07T10:24:35.772Z,9.60
2018-06-07T10:27:04.200Z,9.57
2018-06-07T10:29:32.678Z,9.77
2018-06-07T10:32:01.260Z,9.70
2018-06-07T10:34:29.848Z,9.97
2018-06-07T10:36:58.385Z,9.90
2018-06-07T10:39:27.327Z,9.20
2018-06-07T10:41:55.827Z,9.50
2018-06-07T10:44:24.257Z,9.83
2018-06-07T10:46:52.749Z,10.73
2018-06-07T10:49:21.251Z,11.30
2018-06-07T10:51:49.790Z,12.73
2018-06-07T10:54:18.249Z,14.00
2018-06-07T10:56:46.696Z,11.57
2018-06-07T10:59:15.100Z,15.77
2018-06-07T11:01:43.568Z,11.03
2018-06-07T11:04:12.022Z,11.53
2018-06-07T11:06:49.935Z,12.73
2018-06-07T11:09:18.372Z,14.43
2018-06-07T11:11:46.884Z,13.37
2018-06-07T11:14:15.308Z,11.77
2018-06-07T11:16:44.030Z,12.07
2018-06-07T11:19:12.655Z,12.00
2018-06-07T11:21:41.166Z,12.90
2018-06-07T11:24:10.774Z,11.90
2018-06-07T11:26:40.064Z,12.23
2018-06-07T11:29:08.538Z,11.73
2018-06-07T11:31:38.338Z,12.73
2018-06-07T11:34:07.863Z,11.47
2018-06-07T11:36:37.162Z,11.97
2018-06-07T11:39:06.972Z,12.27
2018-06-07T11:41:36.561Z,12.03
2018-06-07T11:44:05.923Z,11.77
2018-06-07T11:46:34.339Z,10.23
2018-06-07T11:49:02.780Z,11.47
2018-06-07T11:51:32.078Z,14.27
2018-06-07T11:54:01.740Z,12.70
2018-06-07T11:56:30.246Z,10.57
2018-06-07T11:58:59.736Z,11.57
2018-06-07T12:01:28.234Z,11.50
2018-06-07T12:03:56.776Z,11.83
2018-06-07T12:06:25.179Z,11.80
2018-06-07T12:08:53.630Z,11.00
2018-06-07T12:11:23.006Z,13.00
2018-06-07T12:13:51.523Z,10.90
2018-06-07T12:16:19.977Z,11.67
2018-06-07T12:18:48.502Z,11.03
2018-06-07T12:21:17.004Z,11.30
2018-06-07T12:23:45.485Z,11.10
2018-06-07T12:26:13.913Z,11.27
2018-06-07T12:28:42.858Z,10.53
2018-06-07T12:31:11.300Z,10.97
2018-06-07T12:33:39.772Z,11.37
2018-06-07T12:36:08.505Z,10.83
2018-06-07T12:38:47.228Z,10.93
2018-06-07T12:41:16.889Z,12.10
2018-06-07T12:43:46.462Z,14.97
2018-06-07T12:46:15.437Z,12.80
2018-06-07T12:48:45.734Z,12.60
2018-06-07T12:51:14.162Z,13.17
2018-06-07T12:53:42.952Z,12.37
2018-06-07T12:56:11.384Z,10.43
2018-06-07T12:58:39.969Z,12.97
2018-06-07T13:01:09.775Z,12.67
2018-06-07T13:03:38.259Z,12.37
2018-06-07T13:06:07.013Z,12.50
2018-06-07T13:08:35.415Z,11.93
2018-06-07T13:11:03.830Z,12.13
2018-06-07T13:13:32.282Z,11.40
2018-06-07T13:16:00.741Z,12.50
2018-06-07T13:18:29.321Z,12.93
2018-06-07T13:20:57.887Z,12.40
2018-06-07T13:23:26.495Z,13.10
2018-06-07T13:25:55.109Z,13.40
2018-06-07T13:28:23.548Z,14.60
2018-06-07T13:30:51.991Z,15.90
2018-06-07T13:33:20.082Z,13.80
2018-06-07T13:35:48.565Z,13.73
2018-06-07T13:38:16.963Z,13.50
2018-06-07T13:40:45.409Z,14.00
2018-06-07T13:43:13.869Z,14.10
2018-06-07T13:45:42.268Z,13.43
2018-06-07T13:48:10.692Z,14.13
2018-06-07T13:50:39.214Z,14.10
2018-06-07T13:53:07.556Z,12.70
2018-06-07T13:55:35.999Z,12.57
2018-06-07T13:58:04.501Z,13.73
2018-06-07T14:00:32.920Z,12.63
2018-06-07T14:03:01.365Z,13.90
2018-06-07T14:05:29.755Z,13.83
2018-06-07T14:07:58.195Z,14.70
2018-06-07T14:10:27.231Z,12.90
2018-06-07T14:12:55.635Z,12.77
2018-06-07T14:15:24.069Z,12.03
2018-06-07T14:17:52.516Z,12.47
2018-06-07T14:20:20.907Z,14.27
2018-06-07T14:22:49.350Z,14.27
2018-06-07T14:25:17.803Z,14.33
2018-06-07T14:27:46.490Z,13.20
2018-06-07T14:30:14.971Z,13.80
2018-06-07T14:32:43.394Z,13.50
2018-06-07T14:35:11.945Z,14.30
2018-06-07T14:37:40.373Z,14.40
2018-06-07T14:40:08.905Z,13.53
2018-06-07T14:42:37.287Z,13.93
2018-06-07T14:45:05.796Z,13.60
2018-06-07T14:47:34.202Z,14.67
2018-06-07T14:50:02.673Z,15.13
2018-06-07T14:52:31.088Z,14.50
2018-06-07T14:54:59.520Z,15.10
2018-06-07T14:57:27.919Z,15.17
2018-06-07T14:59:56.337Z,15.53
2018-06-07T15:02:24.722Z,15.70
2018-06-07T15:04:53.135Z,16.93
2018-06-07T15:07:21.585Z,17.70
2018-06-07T15:09:50.000Z,17.10
2018-06-07T15:12:18.626Z,17.70
2018-06-07T15:14:47.043Z,18.10
2018-06-07T15:17:15.522Z,17.97
2018-06-07T15:19:43.976Z,17.37
2018-06-07T15:22:12.571Z,16.23
2018-06-07T15:24:41.021Z,18.73
2018-06-07T15:27:09.493Z,18.23
2018-06-07T15:29:37.952Z,12.47
2018-06-07T15:32:06.900Z,8.20
2018-06-07T15:34:35.356Z,7.97
2018-06-07T15:37:03.804Z,6.30
2018-06-07T15:39:32.232Z,7.13
2018-06-07T15:42:00.721Z,6.73
2018-06-07T15:44:29.144Z,6.87
2018-06-07T15:46:57.565Z,6.90
2018-06-07T15:49:25.952Z,8.50
2018-06-07T15:51:54.698Z,8.03
2018-06-07T15:54:23.153Z,8.80
2018-06-07T15:56:52.080Z,8.47
2018-06-07T15:59:20.504Z,8.67
2018-06-07T16:01:48.965Z,9.90
2018-06-07T16:04:17.398Z,10.60
2018-06-07T16:06:47.111Z,10.53
2018-06-07T16:09:15.898Z,11.60
2018-06-07T16:11:44.752Z,10.77
2018-06-07T16:14:13.267Z,10.20
2018-06-07T16:16:41.749Z,10.20
2018-06-07T16:19:10.255Z,10.70
2018-06-07T16:21:38.881Z,11.10
2018-06-07T16:24:07.424Z,11.40
2018-06-07T16:26:35.912Z,11.20
2018-06-07T16:29:04.417Z,11.33
2018-06-07T16:31:32.827Z,11.17
2018-06-07T16:34:02.438Z,11.60
2018-06-07T16:36:30.959Z,11.43
2018-06-07T16:38:59.432Z,10.20
2018-06-07T16:41:27.845Z,12.90
2018-06-07T16:43:57.449Z,12.40
2018-06-07T16:46:25.879Z,11.87
2018-06-07T16:48:54.305Z,12.53
2018-06-07T16:51:22.827Z,13.80
2018-06-07T16:53:51.323Z,13.03
2018-06-07T16:56:19.760Z,12.50
2018-06-07T16:58:48.714Z,13.90
2018-06-07T17:01:17.161Z,11.33
2018-06-07T17:03:45.601Z,11.50
2018-06-07T17:06:14.071Z,12.80
2018-06-07T17:08:42.967Z,12.00
2018-06-07T17:11:11.407Z,12.00
2018-06-07T17:13:40.000Z,31.30
2018-06-07T17:16:08.895Z,31.73
2018-06-07T17:18:37.385Z,23.73
2018-06-07T17:21:05.839Z,13.97
2018-06-07T17:23:34.279Z,16.30
2018-06-07T17:26:02.849Z,15.70
2018-06-07T17:28:31.461Z,13.20
2018-06-07T17:31:00.235Z,11.20
2018-06-07T17:33:28.747Z,10.63
2018-06-07T17:35:57.207Z,11.17
2018-06-07T17:38:25.625Z,13.87
2018-06-07T17:40:54.057Z,12.00
2018-06-07T17:43:22.622Z,12.50
2018-06-07T17:45:51.097Z,12.07
2018-06-07T17:48:19.924Z,27.97
2018-06-07T17:50:48.363Z,13.73
2018-06-07T17:53:16.809Z,15.80
2018-06-07T17:55:45.268Z,17.40
2018-06-07T17:58:13.853Z,15.70
2018-06-07T18:00:42.509Z,13.13
2018-06-07T18:03:10.969Z,15.30
2018-06-07T18:05:39.443Z,14.07
2018-06-07T18:08:08.597Z,16.57
2018-06-07T18:10:37.083Z,13.03
2018-06-07T18:13:06.135Z,12.23
2018-06-07T18:15:43.741Z,15.83
2018-06-07T18:18:12.300Z,14.13
2018-06-07T18:20:41.021Z,14.40
2018-06-07T18:23:09.653Z,14.20
2018-06-07T18:25:38.246Z,13.33
2018-06-07T18:28:06.714Z,14.63
2018-06-07T18:30:35.231Z,13.30
2018-06-07T18:33:03.778Z,14.47
2018-06-07T18:35:32.224Z,15.20
2018-06-07T18:38:00.710Z,14.17
2018-06-07T18:40:29.256Z,15.40
2018-06-07T18:42:57.844Z,14.70
2018-06-07T18:45:26.462Z,14.07
2018-06-07T18:47:55.164Z,12.83
2018-06-07T18:50:23.581Z,16.63
2018-06-07T18:52:52.178Z,13.03
2018-06-07T18:55:20.612Z,15.20
2018-06-07T18:57:50.450Z,15.53
2018-06-07T19:00:18.883Z,13.80
2018-06-07T19:02:47.318Z,15.80
2018-06-07T19:05:15.776Z,14.33
2018-06-07T19:07:44.224Z,15.67
2018-06-07T19:10:13.904Z,18.07
2018-06-07T19:12:42.328Z,15.60
2018-06-07T19:15:13.103Z,14.07
2018-06-07T19:17:41.564Z,15.70
2018-06-07T19:20:15.438Z,15.10
2018-06-07T19:22:43.918Z,16.20
2018-06-07T19:25:17.667Z,24.17
2018-06-07T19:27:46.132Z,19.67
2018-06-07T19:30:14.576Z,17.93
2018-06-07T19:32:48.276Z,16.33
2018-06-07T19:35:17.621Z,16.33
2018-06-07T19:37:46.470Z,18.63
2018-06-07T19:41:19.436Z,16.33
2018-06-07T19:43:47.922Z,17.67
2018-06-07T19:46:16.581Z,15.83
2018-06-07T19:48:45.628Z,20.80
2018-06-07T19:51:14.074Z,17.17
2018-06-07T19:53:42.630Z,18.60
2018-06-07T19:56:11.110Z,23.43
2018-06-07T19:58:40.603Z,18.13
2018-06-07T20:01:09.205Z,17.73
2018-06-07T20:03:38.533Z,17.37
2018-06-07T20:06:08.677Z,17.53
2018-06-07T20:08:37.337Z,20.40
2018-06-07T20:11:05.697Z,20.83
2018-06-07T20:13:34.124Z,18.93
2018-06-07T20:16:02.577Z,18.50
2018-06-07T20:18:31.021Z,17.53
2018-06-07T20:20:59.467Z,16.67
2018-06-07T20:23:27.909Z,17.17
2018-06-07T20:25:56.381Z,18.27
2018-06-07T20:28:25.142Z,25.00
2018-06-07T20:30:54.946Z,20.47
2018-06-07T20:33:23.936Z,33.83
2018-06-07T20:35:52.581Z,27.33
2018-06-07T20:38:21.697Z,20.70
2018-06-07T20:40:50.183Z,20.03
2018-06-07T20:43:18.611Z,23.97
2018-06-07T20:45:47.124Z,23.30
2018-06-07T20:48:16.439Z,21.70
2018-06-07T20:50:44.917Z,20.10
2018-06-07T20:53:13.425Z,22.17
2018-06-07T20:55:42.043Z,24.97
2018-06-07T20:58:10.469Z,27.50
2018-06-07T21:00:39.417Z,42.23
2018-06-07T21:03:08.969Z,24.53
2018-06-07T21:05:37.497Z,23.20
2018-06-07T21:08:06.137Z,20.73
2018-06-07T21:10:35.758Z,22.60
2018-06-07T21:13:04.273Z,21.83
2018-06-07T21:15:32.795Z,22.53
2018-06-07T21:18:01.269Z,23.03
2018-06-07T21:20:29.750Z,23.47
2018-06-07T21:22:58.237Z,22.87
2018-06-07T21:25:26.945Z,22.17
2018-06-07T21:27:55.409Z,21.93
2018-06-07T21:30:24.048Z,22.30
2018-06-07T21:32:52.548Z,22.90
2018-06-07T21:35:20.999Z,22.00
2018-06-07T21:37:49.421Z,24.97
2018-06-07T21:40:17.618Z,38.60
2018-06-07T21:42:46.161Z,24.87
2018-06-07T21:45:14.591Z,23.93
2018-06-07T21:47:43.461Z,24.90
2018-06-07T21:50:11.905Z,25.10
2018-06-07T21:52:40.435Z,27.20
2018-06-07T21:55:08.870Z,24.00
2018-06-07T21:57:37.380Z,27.30
2018-06-07T22:00:07.733Z,32.30
2018-06-07T22:02:36.487Z,27.90
2018-06-07T22:05:05.131Z,31.70
2018-06-07T22:07:34.241Z,28.87
2018-06-07T22:10:02.683Z,30.17
2018-06-07T22:12:31.209Z,29.37
2018-06-07T22:14:59.625Z,27.70
2018-06-07T22:17:28.049Z,27.37
2018-06-07T22:20:01.439Z,27.83
2018-06-07T22:22:30.547Z,28.87
2018-06-07T22:24:59.121Z,27.20
2018-06-07T22:27:27.590Z,29.60
2018-06-07T22:29:56.031Z,27.40
2018-06-07T22:32:24.487Z,27.50
2018-06-07T22:34:52.993Z,27.37
2018-06-07T22:37:21.395Z,27.97
2018-06-07T22:39:49.876Z,27.77
2018-06-07T22:42:18.487Z,29.10
2018-06-07T22:44:46.915Z,29.00
2018-06-07T22:47:15.415Z,29.10
2018-06-07T22:49:43.825Z,32.27
2018-06-07T22:52:12.271Z,31.93
2018-06-07T22:54:40.715Z,33.67
2018-06-07T22:57:09.135Z,27.27
2018-06-07T22:59:37.663Z,26.60
2018-06-07T23:02:06.195Z,26.40
2018-06-07T23:04:34.635Z,28.00
2018-06-07T23:07:03.045Z,28.00
2018-06-07T23:09:31.509Z,30.00
2018-06-07T23:11:59.945Z,28.60
2018-06-07T23:14:28.357Z,31.10
2018-06-07T23:16:59.763Z,33.13
2018-06-07T23:19:28.503Z,29.30
2018-06-07T23:21:56.920Z,28.47
2018-06-07T23:24:26.464Z,27.50
2018-06-07T23:26:54.894Z,30.50
2018-06-07T23:29:23.347Z,29.07
2018-06-07T23:31:52.056Z,31.00
2018-06-07T23:34:20.544Z,31.43
2018-06-07T23:36:49.014Z,29.90
2018-06-07T23:39:17.522Z,30.73
2018-06-07T23:41:46.088Z,31.70
2018-06-07T23:44:14.572Z,32.30
2018-06-07T23:46:43.076Z,33.70
2018-06-07T23:49:11.739Z,32.03
2018-06-07T23:51:40.222Z,30.90
2018-06-07T23:54:08.616Z,31.17
2018-06-07T23:56:37.088Z,30.40
2018-06-07T23:59:05.520Z,32.07
